Terminal Aerodrome Forecast
Issued by NWS Anchorage, AK

Home | Current Version | Previous Version | Text Only | Print | Product List | Glossary On
Versions: 1 2 3 4 5 6 7 8 9 10 11 12 13 14 15 16 17 18 19 20 21 22 23 24 25 26 27 28 29 30
000
FTAK31 PAFC 251140
TAFANC
TAF
PANC 251140Z 2512/2618 19006KT 6SM FU BKN060 BKN100
      TEMPO 2512/2516 3SM FU FEW005
     FM252100 26006KT 6SM FU FEW050 SCT200=

USA.gov is the U.S. government's official web portal to all federal, state and local government web resources and services.